sensor_id;sensor_type;location;lat;lon;timestamp;P1;durP1;ratioP1;P2;durP2;ratioP2
19434;SDS011;9853;50.848;4.108;2023-11-21T00:00:32;9.77;;;4.72;;
19434;SDS011;9853;50.848;4.108;2023-11-21T00:02:32;8.43;;;4.53;;
19434;SDS011;9853;50.848;4.108;2023-11-21T00:04:33;9.18;;;4.38;;
19434;SDS011;9853;50.848;4.108;2023-11-21T00:06:34;8.57;;;4.22;;
19434;SDS011;9853;50.848;4.108;2023-11-21T00:08:35;14.80;;;4.63;;
19434;SDS011;9853;50.848;4.108;2023-11-21T00:10:36;10.40;;;4.47;;
19434;SDS011;9853;50.848;4.108;2023-11-21T00:12:38;11.55;;;4.97;;
19434;SDS011;9853;50.848;4.108;2023-11-21T00:14:42;14.80;;;3.95;;
19434;SDS011;9853;50.848;4.108;2023-11-21T00:16:42;12.43;;;4.85;;
19434;SDS011;9853;50.848;4.108;2023-11-21T00:18:44;5.68;;;3.67;;
19434;SDS011;9853;50.848;4.108;2023-11-21T00:20:46;11.30;;;3.85;;
19434;SDS011;9853;50.848;4.108;2023-11-21T00:22:47;10.40;;;3.95;;
19434;SDS011;9853;50.848;4.108;2023-11-21T00:24:48;11.10;;;4.25;;
19434;SDS011;9853;50.848;4.108;2023-11-21T00:26:49;7.40;;;4.00;;
19434;SDS011;9853;50.848;4.108;2023-11-21T00:28:50;8.05;;;3.50;;
19434;SDS011;9853;50.848;4.108;2023-11-21T00:30:50;11.88;;;4.35;;
19434;SDS011;9853;50.848;4.108;2023-11-21T00:32:51;8.40;;;3.90;;
19434;SDS011;9853;50.848;4.108;2023-11-21T00:34:53;9.90;;;3.88;;
19434;SDS011;9853;50.848;4.108;2023-11-21T00:36:55;9.07;;;3.30;;
19434;SDS011;9853;50.848;4.108;2023-11-21T00:38:56;8.52;;;3.58;;
19434;SDS011;9853;50.848;4.108;2023-11-21T00:40:57;9.60;;;3.78;;
19434;SDS011;9853;50.848;4.108;2023-11-21T00:42:58;11.65;;;4.32;;
19434;SDS011;9853;50.848;4.108;2023-11-21T00:44:59;8.07;;;3.67;;
19434;SDS011;9853;50.848;4.108;2023-11-21T00:47:00;8.77;;;4.05;;
19434;SDS011;9853;50.848;4.108;2023-11-21T00:49:01;13.73;;;4.15;;
19434;SDS011;9853;50.848;4.108;2023-11-21T00:51:04;7.32;;;3.15;;
19434;SDS011;9853;50.848;4.108;2023-11-21T00:53:06;11.77;;;4.38;;
19434;SDS011;9853;50.848;4.108;2023-11-21T00:55:09;5.30;;;2.67;;
19434;SDS011;9853;50.848;4.108;2023-11-21T00:57:10;8.80;;;4.30;;
19434;SDS011;9853;50.848;4.108;2023-11-21T00:59:12;8.38;;;3.00;;
19434;SDS011;9853;50.848;4.108;2023-11-21T01:01:15;9.98;;;3.72;;
19434;SDS011;9853;50.848;4.108;2023-11-21T01:03:16;11.32;;;4.22;;
19434;SDS011;9853;50.848;4.108;2023-11-21T01:05:17;6.53;;;3.22;;
19434;SDS011;9853;50.848;4.108;2023-11-21T01:07:18;8.35;;;3.83;;
19434;SDS011;9853;50.848;4.108;2023-11-21T01:09:20;7.72;;;3.75;;
19434;SDS011;9853;50.848;4.108;2023-11-21T01:11:21;7.22;;;3.15;;
19434;SDS011;9853;50.848;4.108;2023-11-21T01:13:22;9.98;;;4.38;;
19434;SDS011;9853;50.848;4.108;2023-11-21T01:15:22;11.27;;;4.22;;
19434;SDS011;9853;50.848;4.108;2023-11-21T01:17:26;8.35;;;4.32;;
19434;SDS011;9853;50.848;4.108;2023-11-21T01:19:27;6.78;;;3.45;;
19434;SDS011;9853;50.848;4.108;2023-11-21T01:21:29;8.25;;;2.80;;
19434;SDS011;9853;50.848;4.108;2023-11-21T01:23:31;9.77;;;4.03;;
19434;SDS011;9853;50.848;4.108;2023-11-21T01:25:31;8.50;;;3.80;;
19434;SDS011;9853;50.848;4.108;2023-11-21T01:27:35;9.77;;;3.22;;
19434;SDS011;9853;50.848;4.108;2023-11-21T01:29:37;5.50;;;2.95;;
19434;SDS011;9853;50.848;4.108;2023-11-21T01:31:37;15.75;;;3.92;;
19434;SDS011;9853;50.848;4.108;2023-11-21T01:33:38;8.60;;;3.38;;
19434;SDS011;9853;50.848;4.108;2023-11-21T01:35:39;7.45;;;3.92;;
19434;SDS011;9853;50.848;4.108;2023-11-21T01:37:40;11.32;;;4.68;;
19434;SDS011;9853;50.848;4.108;2023-11-21T01:39:40;15.60;;;4.22;;
19434;SDS011;9853;50.848;4.108;2023-11-21T01:41:41;15.98;;;4.15;;
19434;SDS011;9853;50.848;4.108;2023-11-21T01:43:44;12.50;;;3.92;;
19434;SDS011;9853;50.848;4.108;2023-11-21T01:45:45;9.10;;;3.67;;
19434;SDS011;9853;50.848;4.108;2023-11-21T01:47:45;13.65;;;3.85;;
19434;SDS011;9853;50.848;4.108;2023-11-21T01:49:46;10.07;;;3.63;;
19434;SDS011;9853;50.848;4.108;2023-11-21T01:51:48;8.00;;;3.20;;
19434;SDS011;9853;50.848;4.108;2023-11-21T01:53:51;7.85;;;3.75;;
19434;SDS011;9853;50.848;4.108;2023-11-21T01:55:52;7.88;;;3.90;;
19434;SDS011;9853;50.848;4.108;2023-11-21T01:57:55;7.15;;;3.22;;
19434;SDS011;9853;50.848;4.108;2023-11-21T01:59:59;6.32;;;2.67;;
19434;SDS011;9853;50.848;4.108;2023-11-21T02:02:15;8.98;;;3.67;;
19434;SDS011;9853;50.848;4.108;2023-11-21T02:04:16;9.25;;;3.67;;
19434;SDS011;9853;50.848;4.108;2023-11-21T02:06:17;6.65;;;3.55;;
19434;SDS011;9853;50.848;4.108;2023-11-21T02:08:20;6.57;;;2.92;;
19434;SDS011;9853;50.848;4.108;2023-11-21T02:10:20;7.53;;;3.03;;
19434;SDS011;9853;50.848;4.108;2023-11-21T02:12:24;6.35;;;2.78;;
19434;SDS011;9853;50.848;4.108;2023-11-21T02:14:26;5.90;;;3.22;;
19434;SDS011;9853;50.848;4.108;2023-11-21T02:16:28;6.88;;;3.22;;
19434;SDS011;9853;50.848;4.108;2023-11-21T02:18:31;7.13;;;3.13;;
19434;SDS011;9853;50.848;4.108;2023-11-21T02:20:32;7.65;;;3.42;;
19434;SDS011;9853;50.848;4.108;2023-11-21T02:22:35;10.73;;;4.15;;
19434;SDS011;9853;50.848;4.108;2023-11-21T02:24:40;6.53;;;2.80;;
19434;SDS011;9853;50.848;4.108;2023-11-21T02:26:42;8.45;;;3.83;;
19434;SDS011;9853;50.848;4.108;2023-11-21T02:28:43;6.28;;;3.65;;
19434;SDS011;9853;50.848;4.108;2023-11-21T02:30:44;6.05;;;3.10;;
19434;SDS011;9853;50.848;4.108;2023-11-21T02:32:45;7.50;;;2.83;;
19434;SDS011;9853;50.848;4.108;2023-11-21T02:34:46;9.60;;;3.33;;
19434;SDS011;9853;50.848;4.108;2023-11-21T02:36:47;4.22;;;2.80;;
19434;SDS011;9853;50.848;4.108;2023-11-21T02:38:51;6.55;;;3.47;;
19434;SDS011;9853;50.848;4.108;2023-11-21T02:40:51;7.88;;;2.80;;
19434;SDS011;9853;50.848;4.108;2023-11-21T02:42:53;10.20;;;4.55;;
19434;SDS011;9853;50.848;4.108;2023-11-21T02:44:54;5.88;;;3.05;;
19434;SDS011;9853;50.848;4.108;2023-11-21T02:46:55;6.38;;;2.83;;
19434;SDS011;9853;50.848;4.108;2023-11-21T02:48:57;7.22;;;3.38;;
19434;SDS011;9853;50.848;4.108;2023-11-21T02:50:58;8.02;;;3.55;;
19434;SDS011;9853;50.848;4.108;2023-11-21T02:52:59;6.28;;;3.25;;
19434;SDS011;9853;50.848;4.108;2023-11-21T02:55:00;4.63;;;2.63;;
19434;SDS011;9853;50.848;4.108;2023-11-21T02:57:04;8.13;;;3.33;;
19434;SDS011;9853;50.848;4.108;2023-11-21T02:59:06;7.82;;;2.85;;
19434;SDS011;9853;50.848;4.108;2023-11-21T03:01:06;8.88;;;3.70;;
19434;SDS011;9853;50.848;4.108;2023-11-21T03:03:07;9.45;;;3.97;;
19434;SDS011;9853;50.848;4.108;2023-11-21T03:05:08;10.15;;;3.20;;
19434;SDS011;9853;50.848;4.108;2023-11-21T03:07:09;11.50;;;4.00;;
19434;SDS011;9853;50.848;4.108;2023-11-21T03:09:10;10.75;;;3.03;;
19434;SDS011;9853;50.848;4.108;2023-11-21T03:11:14;8.20;;;3.20;;
19434;SDS011;9853;50.848;4.108;2023-11-21T03:13:15;6.05;;;3.15;;
19434;SDS011;9853;50.848;4.108;2023-11-21T03:15:16;7.95;;;3.88;;
19434;SDS011;9853;50.848;4.108;2023-11-21T03:17:17;6.60;;;3.67;;
19434;SDS011;9853;50.848;4.108;2023-11-21T03:19:17;7.53;;;4.00;;
19434;SDS011;9853;50.848;4.108;2023-11-21T03:21:18;10.55;;;3.80;;
19434;SDS011;9853;50.848;4.108;2023-11-21T03:23:19;8.65;;;3.92;;
19434;SDS011;9853;50.848;4.108;2023-11-21T03:25:20;7.22;;;3.47;;
19434;SDS011;9853;50.848;4.108;2023-11-21T03:27:24;6.88;;;2.92;;
19434;SDS011;9853;50.848;4.108;2023-11-21T03:29:25;7.68;;;3.63;;
19434;SDS011;9853;50.848;4.108;2023-11-21T03:31:26;8.02;;;3.78;;
19434;SDS011;9853;50.848;4.108;2023-11-21T03:33:26;6.50;;;3.97;;
19434;SDS011;9853;50.848;4.108;2023-11-21T03:35:28;8.80;;;3.90;;
19434;SDS011;9853;50.848;4.108;2023-11-21T03:37:29;5.38;;;3.20;;
19434;SDS011;9853;50.848;4.108;2023-11-21T03:39:29;7.30;;;3.40;;
19434;SDS011;9853;50.848;4.108;2023-11-21T03:41:30;6.43;;;3.08;;
19434;SDS011;9853;50.848;4.108;2023-11-21T03:43:31;8.23;;;3.97;;
19434;SDS011;9853;50.848;4.108;2023-11-21T03:45:32;6.63;;;3.72;;
19434;SDS011;9853;50.848;4.108;2023-11-21T03:47:33;8.32;;;3.10;;
19434;SDS011;9853;50.848;4.108;2023-11-21T03:49:35;6.20;;;3.22;;
19434;SDS011;9853;50.848;4.108;2023-11-21T03:51:35;7.32;;;3.85;;
19434;SDS011;9853;50.848;4.108;2023-11-21T03:53:37;10.98;;;4.05;;
19434;SDS011;9853;50.848;4.108;2023-11-21T03:55:38;4.60;;;2.55;;
19434;SDS011;9853;50.848;4.108;2023-11-21T03:57:39;6.90;;;4.03;;
19434;SDS011;9853;50.848;4.108;2023-11-21T03:59:40;8.95;;;3.85;;
19434;SDS011;9853;50.848;4.108;2023-11-21T04:01:41;7.70;;;3.85;;
19434;SDS011;9853;50.848;4.108;2023-11-21T04:03:42;8.38;;;3.20;;
19434;SDS011;9853;50.848;4.108;2023-11-21T04:05:43;8.68;;;3.40;;
19434;SDS011;9853;50.848;4.108;2023-11-21T04:07:43;7.78;;;3.10;;
19434;SDS011;9853;50.848;4.108;2023-11-21T04:09:44;6.18;;;3.08;;
19434;SDS011;9853;50.848;4.108;2023-11-21T04:11:45;6.72;;;3.45;;
19434;SDS011;9853;50.848;4.108;2023-11-21T04:13:46;5.95;;;3.40;;
19434;SDS011;9853;50.848;4.108;2023-11-21T04:15:47;7.68;;;3.33;;
19434;SDS011;9853;50.848;4.108;2023-11-21T04:17:47;7.85;;;4.38;;
19434;SDS011;9853;50.848;4.108;2023-11-21T04:19:48;8.80;;;4.03;;
19434;SDS011;9853;50.848;4.108;2023-11-21T04:21:49;9.68;;;3.58;;
19434;SDS011;9853;50.848;4.108;2023-11-21T04:23:50;7.53;;;3.92;;
19434;SDS011;9853;50.848;4.108;2023-11-21T04:25:50;8.48;;;3.38;;
19434;SDS011;9853;50.848;4.108;2023-11-21T04:27:52;7.35;;;3.25;;
19434;SDS011;9853;50.848;4.108;2023-11-21T04:29:53;7.75;;;3.63;;
19434;SDS011;9853;50.848;4.108;2023-11-21T04:31:54;11.15;;;4.32;;
19434;SDS011;9853;50.848;4.108;2023-11-21T04:33:54;7.90;;;3.55;;
19434;SDS011;9853;50.848;4.108;2023-11-21T04:35:55;6.03;;;3.20;;
19434;SDS011;9853;50.848;4.108;2023-11-21T04:37:56;8.60;;;3.90;;
19434;SDS011;9853;50.848;4.108;2023-11-21T04:39:57;6.45;;;3.40;;
19434;SDS011;9853;50.848;4.108;2023-11-21T04:41:58;7.60;;;3.10;;
19434;SDS011;9853;50.848;4.108;2023-11-21T04:43:58;10.23;;;3.78;;
19434;SDS011;9853;50.848;4.108;2023-11-21T04:46:00;7.55;;;3.20;;
19434;SDS011;9853;50.848;4.108;2023-11-21T04:48:02;6.75;;;2.90;;
19434;SDS011;9853;50.848;4.108;2023-11-21T04:50:04;6.38;;;2.92;;
19434;SDS011;9853;50.848;4.108;2023-11-21T04:52:06;7.45;;;3.25;;
19434;SDS011;9853;50.848;4.108;2023-11-21T04:54:07;8.15;;;3.45;;
19434;SDS011;9853;50.848;4.108;2023-11-21T04:56:08;10.63;;;4.05;;
19434;SDS011;9853;50.848;4.108;2023-11-21T04:58:09;6.50;;;3.45;;
19434;SDS011;9853;50.848;4.108;2023-11-21T05:00:11;7.53;;;3.53;;
19434;SDS011;9853;50.848;4.108;2023-11-21T05:02:12;9.98;;;3.40;;
19434;SDS011;9853;50.848;4.108;2023-11-21T05:04:13;14.65;;;4.57;;
19434;SDS011;9853;50.848;4.108;2023-11-21T05:06:14;10.48;;;4.72;;
19434;SDS011;9853;50.848;4.108;2023-11-21T05:08:16;10.73;;;4.35;;
19434;SDS011;9853;50.848;4.108;2023-11-21T05:10:17;7.97;;;4.63;;
19434;SDS011;9853;50.848;4.108;2023-11-21T05:12:18;12.43;;;4.60;;
19434;SDS011;9853;50.848;4.108;2023-11-21T05:14:18;7.07;;;3.28;;
19434;SDS011;9853;50.848;4.108;2023-11-21T05:16:19;6.95;;;3.60;;
19434;SDS011;9853;50.848;4.108;2023-11-21T05:18:20;6.90;;;3.33;;
19434;SDS011;9853;50.848;4.108;2023-11-21T05:20:21;7.70;;;2.97;;
19434;SDS011;9853;50.848;4.108;2023-11-21T05:22:22;11.00;;;3.72;;
19434;SDS011;9853;50.848;4.108;2023-11-21T05:24:22;11.15;;;3.72;;
19434;SDS011;9853;50.848;4.108;2023-11-21T05:26:23;6.78;;;2.78;;
19434;SDS011;9853;50.848;4.108;2023-11-21T05:28:25;7.55;;;3.15;;
19434;SDS011;9853;50.848;4.108;2023-11-21T05:30:26;10.60;;;3.58;;
19434;SDS011;9853;50.848;4.108;2023-11-21T05:32:27;6.47;;;2.72;;
19434;SDS011;9853;50.848;4.108;2023-11-21T05:34:27;6.82;;;3.47;;
19434;SDS011;9853;50.848;4.108;2023-11-21T05:36:28;4.82;;;2.78;;
19434;SDS011;9853;50.848;4.108;2023-11-21T05:38:29;6.32;;;2.63;;
19434;SDS011;9853;50.848;4.108;2023-11-21T05:40:30;7.70;;;2.53;;
19434;SDS011;9853;50.848;4.108;2023-11-21T05:42:31;6.93;;;3.53;;
19434;SDS011;9853;50.848;4.108;2023-11-21T05:44:32;6.28;;;3.22;;
19434;SDS011;9853;50.848;4.108;2023-11-21T05:46:35;6.13;;;2.78;;
19434;SDS011;9853;50.848;4.108;2023-11-21T05:48:35;5.07;;;3.17;;
19434;SDS011;9853;50.848;4.108;2023-11-21T05:50:39;4.78;;;2.60;;
19434;SDS011;9853;50.848;4.108;2023-11-21T05:52:40;7.20;;;3.25;;
19434;SDS011;9853;50.848;4.108;2023-11-21T05:54:42;6.53;;;3.47;;
19434;SDS011;9853;50.848;4.108;2023-11-21T05:56:42;6.70;;;3.80;;
19434;SDS011;9853;50.848;4.108;2023-11-21T05:58:43;5.47;;;3.15;;
19434;SDS011;9853;50.848;4.108;2023-11-21T06:00:44;5.95;;;2.85;;
19434;SDS011;9853;50.848;4.108;2023-11-21T06:02:45;7.00;;;3.00;;
19434;SDS011;9853;50.848;4.108;2023-11-21T06:04:46;9.85;;;3.22;;
19434;SDS011;9853;50.848;4.108;2023-11-21T06:06:47;6.60;;;2.88;;
19434;SDS011;9853;50.848;4.108;2023-11-21T06:08:50;7.85;;;3.97;;
19434;SDS011;9853;50.848;4.108;2023-11-21T06:10:51;8.25;;;3.40;;
19434;SDS011;9853;50.848;4.108;2023-11-21T06:12:52;8.85;;;3.25;;
19434;SDS011;9853;50.848;4.108;2023-11-21T06:14:53;9.15;;;3.92;;
19434;SDS011;9853;50.848;4.108;2023-11-21T06:16:54;7.53;;;4.20;;
19434;SDS011;9853;50.848;4.108;2023-11-21T06:18:56;12.50;;;4.10;;
19434;SDS011;9853;50.848;4.108;2023-11-21T06:20:57;10.23;;;3.75;;
19434;SDS011;9853;50.848;4.108;2023-11-21T06:23:01;7.13;;;3.47;;
19434;SDS011;9853;50.848;4.108;2023-11-21T06:25:03;11.45;;;3.92;;
19434;SDS011;9853;50.848;4.108;2023-11-21T06:27:05;8.13;;;3.70;;
19434;SDS011;9853;50.848;4.108;2023-11-21T06:29:06;5.85;;;3.15;;
19434;SDS011;9853;50.848;4.108;2023-11-21T06:31:07;11.38;;;3.53;;
19434;SDS011;9853;50.848;4.108;2023-11-21T06:33:08;7.25;;;3.83;;
19434;SDS011;9853;50.848;4.108;2023-11-21T06:35:09;6.25;;;3.15;;
19434;SDS011;9853;50.848;4.108;2023-11-21T06:37:10;10.70;;;5.15;;
19434;SDS011;9853;50.848;4.108;2023-11-21T06:39:12;8.60;;;4.03;;
19434;SDS011;9853;50.848;4.108;2023-11-21T06:41:15;7.78;;;3.85;;
19434;SDS011;9853;50.848;4.108;2023-11-21T06:43:15;8.02;;;3.72;;
19434;SDS011;9853;50.848;4.108;2023-11-21T06:45:17;6.93;;;3.70;;
19434;SDS011;9853;50.848;4.108;2023-11-21T06:47:20;7.75;;;3.08;;
19434;SDS011;9853;50.848;4.108;2023-11-21T06:49:20;10.15;;;3.55;;
19434;SDS011;9853;50.848;4.108;2023-11-21T06:51:21;7.55;;;3.45;;
19434;SDS011;9853;50.848;4.108;2023-11-21T06:53:22;8.45;;;3.78;;
19434;SDS011;9853;50.848;4.108;2023-11-21T06:55:23;6.28;;;3.65;;
19434;SDS011;9853;50.848;4.108;2023-11-21T06:57:24;7.40;;;3.40;;
19434;SDS011;9853;50.848;4.108;2023-11-21T06:59:24;10.02;;;3.05;;
19434;SDS011;9853;50.848;4.108;2023-11-21T07:01:25;7.38;;;3.78;;
19434;SDS011;9853;50.848;4.108;2023-11-21T07:03:26;7.78;;;4.55;;
19434;SDS011;9853;50.848;4.108;2023-11-21T07:05:27;13.98;;;6.63;;
19434;SDS011;9853;50.848;4.108;2023-11-21T07:07:28;8.52;;;4.55;;
19434;SDS011;9853;50.848;4.108;2023-11-21T07:09:29;9.05;;;4.15;;
19434;SDS011;9853;50.848;4.108;2023-11-21T07:11:31;7.47;;;4.00;;
19434;SDS011;9853;50.848;4.108;2023-11-21T07:13:32;8.48;;;4.05;;
19434;SDS011;9853;50.848;4.108;2023-11-21T07:15:33;7.43;;;3.70;;
19434;SDS011;9853;50.848;4.108;2023-11-21T07:17:37;8.13;;;3.90;;
19434;SDS011;9853;50.848;4.108;2023-11-21T07:19:38;14.25;;;5.05;;
19434;SDS011;9853;50.848;4.108;2023-11-21T07:21:40;11.00;;;4.35;;
19434;SDS011;9853;50.848;4.108;2023-11-21T07:23:40;14.85;;;5.15;;
19434;SDS011;9853;50.848;4.108;2023-11-21T07:25:41;8.23;;;3.75;;
19434;SDS011;9853;50.848;4.108;2023-11-21T07:27:43;8.82;;;3.63;;
19434;SDS011;9853;50.848;4.108;2023-11-21T07:29:44;10.27;;;4.18;;
19434;SDS011;9853;50.848;4.108;2023-11-21T07:31:45;11.55;;;4.85;;
19434;SDS011;9853;50.848;4.108;2023-11-21T07:33:46;11.50;;;5.22;;
19434;SDS011;9853;50.848;4.108;2023-11-21T07:35:50;11.93;;;4.80;;
19434;SDS011;9853;50.848;4.108;2023-11-21T07:37:50;12.55;;;5.32;;
19434;SDS011;9853;50.848;4.108;2023-11-21T07:39:51;12.50;;;4.28;;
19434;SDS011;9853;50.848;4.108;2023-11-21T07:41:56;12.73;;;5.15;;
19434;SDS011;9853;50.848;4.108;2023-11-21T07:43:58;13.10;;;3.97;;
19434;SDS011;9853;50.848;4.108;2023-11-21T07:45:58;9.85;;;5.30;;
19434;SDS011;9853;50.848;4.108;2023-11-21T07:47:59;12.38;;;4.78;;
19434;SDS011;9853;50.848;4.108;2023-11-21T07:50:03;9.98;;;5.07;;
19434;SDS011;9853;50.848;4.108;2023-11-21T07:52:04;8.75;;;4.13;;
19434;SDS011;9853;50.848;4.108;2023-11-21T07:54:05;13.63;;;4.78;;
19434;SDS011;9853;50.848;4.108;2023-11-21T07:56:06;10.63;;;4.65;;
19434;SDS011;9853;50.848;4.108;2023-11-21T07:58:08;12.65;;;4.50;;
19434;SDS011;9853;50.848;4.108;2023-11-21T08:00:09;11.40;;;5.30;;
19434;SDS011;9853;50.848;4.108;2023-11-21T08:02:14;14.00;;;4.75;;
19434;SDS011;9853;50.848;4.108;2023-11-21T08:04:17;16.50;;;4.45;;
19434;SDS011;9853;50.848;4.108;2023-11-21T08:06:18;10.68;;;5.03;;
19434;SDS011;9853;50.848;4.108;2023-11-21T08:08:19;11.93;;;4.78;;
19434;SDS011;9853;50.848;4.108;2023-11-21T08:10:21;12.38;;;4.57;;
19434;SDS011;9853;50.848;4.108;2023-11-21T08:12:22;14.00;;;5.07;;
19434;SDS011;9853;50.848;4.108;2023-11-21T08:14:22;12.38;;;5.50;;
19434;SDS011;9853;50.848;4.108;2023-11-21T08:16:25;13.18;;;5.72;;
19434;SDS011;9853;50.848;4.108;2023-11-21T08:18:26;9.32;;;4.47;;
19434;SDS011;9853;50.848;4.108;2023-11-21T08:20:27;13.20;;;5.30;;
19434;SDS011;9853;50.848;4.108;2023-11-21T08:22:28;13.38;;;5.03;;
19434;SDS011;9853;50.848;4.108;2023-11-21T08:24:29;16.58;;;5.18;;
19434;SDS011;9853;50.848;4.108;2023-11-21T08:26:30;7.57;;;4.07;;
19434;SDS011;9853;50.848;4.108;2023-11-21T08:28:31;10.43;;;4.80;;
19434;SDS011;9853;50.848;4.108;2023-11-21T08:30:31;12.15;;;4.45;;
19434;SDS011;9853;50.848;4.108;2023-11-21T08:32:32;10.88;;;5.60;;
19434;SDS011;9853;50.848;4.108;2023-11-21T08:34:33;16.20;;;5.75;;
19434;SDS011;9853;50.848;4.108;2023-11-21T08:36:34;12.82;;;4.65;;
19434;SDS011;9853;50.848;4.108;2023-11-21T08:38:35;13.18;;;4.85;;
19434;SDS011;9853;50.848;4.108;2023-11-21T08:40:38;15.48;;;5.45;;
19434;SDS011;9853;50.848;4.108;2023-11-21T08:42:38;15.30;;;4.68;;
19434;SDS011;9853;50.848;4.108;2023-11-21T08:44:39;12.20;;;4.28;;
19434;SDS011;9853;50.848;4.108;2023-11-21T08:46:40;14.98;;;5.53;;
19434;SDS011;9853;50.848;4.108;2023-11-21T08:48:42;16.58;;;4.95;;
19434;SDS011;9853;50.848;4.108;2023-11-21T08:50:43;9.13;;;3.65;;
19434;SDS011;9853;50.848;4.108;2023-11-21T08:52:45;15.73;;;6.03;;
19434;SDS011;9853;50.848;4.108;2023-11-21T08:54:46;11.05;;;3.97;;
19434;SDS011;9853;50.848;4.108;2023-11-21T08:56:48;13.98;;;5.10;;
19434;SDS011;9853;50.848;4.108;2023-11-21T08:58:50;18.63;;;4.55;;
19434;SDS011;9853;50.848;4.108;2023-11-21T09:00:50;12.10;;;4.60;;
19434;SDS011;9853;50.848;4.108;2023-11-21T09:02:51;11.38;;;4.60;;
19434;SDS011;9853;50.848;4.108;2023-11-21T09:04:52;14.43;;;5.00;;
19434;SDS011;9853;50.848;4.108;2023-11-21T09:06:53;11.02;;;4.15;;
19434;SDS011;9853;50.848;4.108;2023-11-21T09:08:54;18.52;;;4.75;;
19434;SDS011;9853;50.848;4.108;2023-11-21T09:10:54;19.55;;;4.60;;
19434;SDS011;9853;50.848;4.108;2023-11-21T09:12:55;9.88;;;3.70;;
19434;SDS011;9853;50.848;4.108;2023-11-21T09:14:56;12.80;;;5.10;;
19434;SDS011;9853;50.848;4.108;2023-11-21T09:16:57;11.07;;;5.32;;
19434;SDS011;9853;50.848;4.108;2023-11-21T09:18:58;15.38;;;4.40;;
19434;SDS011;9853;50.848;4.108;2023-11-21T09:20:59;12.98;;;5.38;;
19434;SDS011;9853;50.848;4.108;2023-11-21T09:23:00;12.05;;;5.38;;
19434;SDS011;9853;50.848;4.108;2023-11-21T09:25:01;11.65;;;4.43;;
19434;SDS011;9853;50.848;4.108;2023-11-21T09:27:05;7.05;;;3.90;;
19434;SDS011;9853;50.848;4.108;2023-11-21T09:29:05;16.00;;;4.95;;
19434;SDS011;9853;50.848;4.108;2023-11-21T09:31:08;10.98;;;5.13;;
19434;SDS011;9853;50.848;4.108;2023-11-21T09:33:09;11.95;;;4.90;;
19434;SDS011;9853;50.848;4.108;2023-11-21T09:35:10;10.93;;;4.47;;
19434;SDS011;9853;50.848;4.108;2023-11-21T09:37:14;11.02;;;4.70;;
19434;SDS011;9853;50.848;4.108;2023-11-21T09:39:14;11.32;;;4.57;;
19434;SDS011;9853;50.848;4.108;2023-11-21T09:41:19;11.43;;;5.15;;
19434;SDS011;9853;50.848;4.108;2023-11-21T09:43:26;10.65;;;4.72;;
19434;SDS011;9853;50.848;4.108;2023-11-21T09:45:36;9.65;;;4.35;;
19434;SDS011;9853;50.848;4.108;2023-11-21T09:47:39;10.98;;;4.22;;
19434;SDS011;9853;50.848;4.108;2023-11-21T09:49:40;10.27;;;4.07;;
19434;SDS011;9853;50.848;4.108;2023-11-21T09:51:42;6.88;;;3.42;;
19434;SDS011;9853;50.848;4.108;2023-11-21T09:53:43;10.38;;;4.63;;
19434;SDS011;9853;50.848;4.108;2023-11-21T09:55:48;9.82;;;4.38;;
19434;SDS011;9853;50.848;4.108;2023-11-21T09:57:51;10.93;;;4.97;;
19434;SDS011;9853;50.848;4.108;2023-11-21T09:59:54;17.90;;;5.05;;
19434;SDS011;9853;50.848;4.108;2023-11-21T10:02:05;11.00;;;4.60;;
19434;SDS011;9853;50.848;4.108;2023-11-21T10:04:11;12.77;;;4.22;;
19434;SDS011;9853;50.848;4.108;2023-11-21T10:06:12;8.65;;;4.03;;
19434;SDS011;9853;50.848;4.108;2023-11-21T10:08:14;13.63;;;5.20;;
19434;SDS011;9853;50.848;4.108;2023-11-21T10:10:15;13.25;;;4.80;;
19434;SDS011;9853;50.848;4.108;2023-11-21T10:12:18;17.45;;;5.75;;
19434;SDS011;9853;50.848;4.108;2023-11-21T10:14:22;9.32;;;3.92;;
19434;SDS011;9853;50.848;4.108;2023-11-21T10:16:26;9.18;;;3.78;;
19434;SDS011;9853;50.848;4.108;2023-11-21T10:18:27;8.40;;;3.65;;
19434;SDS011;9853;50.848;4.108;2023-11-21T10:20:30;7.82;;;4.30;;
19434;SDS011;9853;50.848;4.108;2023-11-21T10:22:32;10.45;;;3.92;;
19434;SDS011;9853;50.848;4.108;2023-11-21T10:24:33;13.45;;;4.10;;
19434;SDS011;9853;50.848;4.108;2023-11-21T10:26:35;9.52;;;3.97;;
19434;SDS011;9853;50.848;4.108;2023-11-21T10:28:36;10.93;;;3.78;;
19434;SDS011;9853;50.848;4.108;2023-11-21T10:30:39;15.57;;;4.40;;
19434;SDS011;9853;50.848;4.108;2023-11-21T10:32:40;12.57;;;4.20;;
19434;SDS011;9853;50.848;4.108;2023-11-21T10:34:41;11.85;;;4.50;;
19434;SDS011;9853;50.848;4.108;2023-11-21T10:36:42;10.40;;;3.60;;
19434;SDS011;9853;50.848;4.108;2023-11-21T10:38:43;12.60;;;4.80;;
19434;SDS011;9853;50.848;4.108;2023-11-21T10:40:45;7.18;;;3.50;;
19434;SDS011;9853;50.848;4.108;2023-11-21T10:42:46;8.65;;;3.50;;
19434;SDS011;9853;50.848;4.108;2023-11-21T10:44:47;6.45;;;3.60;;
19434;SDS011;9853;50.848;4.108;2023-11-21T10:46:48;10.80;;;4.65;;
19434;SDS011;9853;50.848;4.108;2023-11-21T10:48:56;16.65;;;4.07;;
19434;SDS011;9853;50.848;4.108;2023-11-21T10:50:57;8.40;;;4.22;;
19434;SDS011;9853;50.848;4.108;2023-11-21T10:52:58;10.45;;;4.18;;
19434;SDS011;9853;50.848;4.108;2023-11-21T10:55:01;8.88;;;4.10;;
19434;SDS011;9853;50.848;4.108;2023-11-21T10:57:03;9.85;;;4.15;;
19434;SDS011;9853;50.848;4.108;2023-11-21T10:59:04;13.90;;;5.30;;
19434;SDS011;9853;50.848;4.108;2023-11-21T11:01:06;12.90;;;4.60;;
19434;SDS011;9853;50.848;4.108;2023-11-21T11:03:08;9.60;;;4.15;;
19434;SDS011;9853;50.848;4.108;2023-11-21T11:05:15;11.98;;;4.20;;
19434;SDS011;9853;50.848;4.108;2023-11-21T11:07:19;13.52;;;4.25;;
19434;SDS011;9853;50.848;4.108;2023-11-21T11:09:25;6.18;;;3.47;;
19434;SDS011;9853;50.848;4.108;2023-11-21T11:11:27;6.35;;;3.20;;
19434;SDS011;9853;50.848;4.108;2023-11-21T11:13:30;12.55;;;4.35;;
19434;SDS011;9853;50.848;4.108;2023-11-21T11:15:31;6.20;;;3.20;;
19434;SDS011;9853;50.848;4.108;2023-11-21T11:17:33;7.80;;;3.47;;
19434;SDS011;9853;50.848;4.108;2023-11-21T11:19:34;7.22;;;4.25;;
19434;SDS011;9853;50.848;4.108;2023-11-21T11:21:48;11.73;;;4.57;;
19434;SDS011;9853;50.848;4.108;2023-11-21T11:24:05;9.57;;;3.33;;
19434;SDS011;9853;50.848;4.108;2023-11-21T11:26:34;8.38;;;3.78;;
19434;SDS011;9853;50.848;4.108;2023-11-21T11:31:36;3.90;;;2.22;;
19434;SDS011;9853;50.848;4.108;2023-11-21T11:34:00;4.75;;;2.53;;
19434;SDS011;9853;50.848;4.108;2023-11-21T11:36:37;6.07;;;2.55;;
19434;SDS011;9853;50.848;4.108;2023-11-21T11:38:47;4.13;;;1.75;;
19434;SDS011;9853;50.848;4.108;2023-11-21T11:40:52;2.78;;;1.67;;
19434;SDS011;9853;50.848;4.108;2023-11-21T11:43:00;5.15;;;2.42;;
19434;SDS011;9853;50.848;4.108;2023-11-21T11:45:17;4.45;;;2.20;;
19434;SDS011;9853;50.848;4.108;2023-11-21T11:47:23;3.00;;;1.67;;
19434;SDS011;9853;50.848;4.108;2023-11-21T11:49:32;3.22;;;1.60;;
19434;SDS011;9853;50.848;4.108;2023-11-21T11:51:33;2.83;;;1.60;;
19434;SDS011;9853;50.848;4.108;2023-11-21T11:53:36;7.70;;;2.47;;
19434;SDS011;9853;50.848;4.108;2023-11-21T11:55:39;5.97;;;2.05;;
19434;SDS011;9853;50.848;4.108;2023-11-21T11:57:41;10.70;;;1.67;;
19434;SDS011;9853;50.848;4.108;2023-11-21T12:02:23;3.22;;;1.58;;
19434;SDS011;9853;50.848;4.108;2023-11-21T12:04:24;2.47;;;1.30;;
19434;SDS011;9853;50.848;4.108;2023-11-21T12:06:34;6.85;;;1.10;;
19434;SDS011;9853;50.848;4.108;2023-11-21T12:08:35;9.13;;;1.40;;
19434;SDS011;9853;50.848;4.108;2023-11-21T12:10:37;1.95;;;1.27;;
19434;SDS011;9853;50.848;4.108;2023-11-21T12:12:42;1.33;;;0.95;;
19434;SDS011;9853;50.848;4.108;2023-11-21T12:14:46;1.38;;;0.93;;
19434;SDS011;9853;50.848;4.108;2023-11-21T12:16:47;5.00;;;1.10;;
19434;SDS011;9853;50.848;4.108;2023-11-21T12:18:49;6.82;;;1.38;;
19434;SDS011;9853;50.848;4.108;2023-11-21T12:20:50;3.63;;;1.55;;
19434;SDS011;9853;50.848;4.108;2023-11-21T12:22:52;1.15;;;0.80;;
19434;SDS011;9853;50.848;4.108;2023-11-21T12:24:59;2.92;;;1.20;;
19434;SDS011;9853;50.848;4.108;2023-11-21T12:27:00;4.85;;;1.10;;